Time;durP1;ratioP1;P1;durP2;ratioP2;P2;SDS_P1;SDS_P2;PMS_P1;PMS_P2;Temp;Humidity;BMP_temperature;BMP_pressure;BME280_temperature;BME280_humidity;BME280_pressure;Samples;Min_cycle;Max_cycle;Signal;HPM_P1;HPM_P2
2021/04/24 00:04:04;;;;;;;10.07;5.33;;;;;;;1.81;70.15;100482.43;235366;1173;115481;-64
2021/04/24 00:09:12;;;;;;;8.83;5.60;;;;;;;1.67;69.78;100474.16;235257;1174;114716;-64
2021/04/24 00:14:18;;;;;;;14.93;5.27;;;;;;;1.59;69.36;100474.13;235277;1174;115078;-63
2021/04/24 00:19:22;;;;;;;;;;;;;;;1.49;69.87;100470.83;235089;1173;114520;-63
2021/04/24 00:24:26;;;;;;;12.73;7.88;;;;;;;1.33;70.27;100475.98;234979;1173;103162;-63
2021/04/24 00:29:30;;;;;;;11.50;6.57;;;;;;;1.23;70.06;100477.89;233279;1174;115909;-65
2021/04/24 00:34:34;;;;;;;8.97;5.30;;;;;;;1.14;70.41;100478.86;232519;1174;115308;-62
2021/04/24 00:39:37;;;;;;;13.07;5.57;;;;;;;1.03;70.56;100479.93;233839;1171;116465;-62
2021/04/24 00:44:52;;;;;;;13.13;7.38;;;;;;;0.92;70.76;100485.42;233908;1174;116243;-65
2021/04/24 00:49:55;;;;;;;16.30;7.00;;;;;;;0.89;70.94;100480.52;232734;1173;116290;-62
2021/04/24 00:54:58;;;;;;;15.20;6.73;;;;;;;0.83;71.11;100484.57;232665;1174;116337;-62
2021/04/24 01:00:04;;;;;;;16.48;8.08;;;;;;;0.75;71.13;100487.13;233365;1173;117289;-62
2021/04/24 01:05:36;;;;;;;10.33;5.80;;;;;;;0.67;71.40;100493.13;233055;1174;115706;-62
2021/04/24 01:10:45;;;;;;;18.75;6.83;;;;;;;0.57;71.68;100500.28;233710;1173;115730;-63
2021/04/24 01:15:50;;;;;;;16.15;7.90;;;;;;;0.52;71.48;100501.70;233213;1174;115935;-64
2021/04/24 01:20:57;;;;;;;11.98;7.15;;;;;;;0.45;71.60;100501.48;232566;1174;115306;-62
2021/04/24 01:26:02;;;;;;;16.07;6.87;;;;;;;0.42;71.86;100499.16;233973;1174;115430;-62
2021/04/24 01:31:06;;;;;;;11.75;5.30;;;;;;;0.39;71.19;100506.50;234163;1174;115355;-62
2021/04/24 01:36:12;;;;;;;13.08;6.90;;;;;;;0.32;71.63;100498.41;234327;1174;116806;-62
2021/04/24 01:41:17;;;;;;;11.10;6.80;;;;;;;0.23;71.50;100501.94;232631;1174;117526;-62
2021/04/24 01:46:21;;;;;;;10.53;6.98;;;;;;;0.14;72.17;100501.03;235255;1174;116404;-62
2021/04/24 01:51:25;;;;;;;14.63;7.13;;;;;;;0.06;71.45;100498.31;235271;1174;116057;-62
2021/04/24 01:57:06;;;;;;;10.07;5.23;;;;;;;-0.04;71.93;100501.02;235194;1174;115474;-62
2021/04/24 02:02:14;;;;;;;10.35;5.58;;;;;;;-0.07;72.26;100497.88;235075;1174;116694;-62
2021/04/24 02:07:16;;;;;;;6.97;4.63;;;;;;;-0.02;71.93;100477.29;235224;1174;114533;-62
2021/04/24 02:12:19;;;;;;;12.83;6.93;;;;;;;-0.06;72.12;100466.28;235347;1173;115893;-62
2021/04/24 02:17:27;;;;;;;11.03;5.73;;;;;;;-0.05;71.65;100459.23;234996;1167;115862;-62
2021/04/24 02:22:31;;;;;;;13.60;5.48;;;;;;;-0.08;72.09;100441.19;232782;1174;116354;-62
2021/04/24 02:27:35;;;;;;;12.90;4.88;;;;;;;-0.04;72.50;100463.51;234333;1174;117189;-63
2021/04/24 02:32:39;;;;;;;11.68;5.93;;;;;;;0.01;72.51;100466.48;234808;1174;117163;-62
2021/04/24 02:37:43;;;;;;;10.77;4.73;;;;;;;0.08;72.42;100454.44;232852;1174;116110;-62
2021/04/24 02:42:46;;;;;;;14.85;5.20;;;;;;;0.13;72.88;100431.22;233071;1174;117805;-61
2021/04/24 02:47:49;;;;;;;9.55;4.63;;;;;;;0.21;72.83;100441.78;233481;1174;117763;-62
2021/04/24 02:52:53;;;;;;;14.77;5.23;;;;;;;0.34;73.04;100449.25;232892;1174;117737;-62
2021/04/24 02:57:56;;;;;;;8.28;4.73;;;;;;;0.40;73.07;100450.45;232805;1174;115190;-62
2021/04/24 03:03:02;;;;;;;13.03;5.07;;;;;;;0.51;72.64;100455.47;232665;1167;115138;-61
2021/04/24 03:08:10;;;;;;;12.40;5.95;;;;;;;0.59;72.63;100458.98;232877;1167;116050;-62
2021/04/24 03:13:14;;;;;;;12.18;6.08;;;;;;;0.64;72.64;100456.70;233543;1174;116633;-62
2021/04/24 03:18:18;;;;;;;7.05;4.70;;;;;;;0.67;72.88;100458.20;232742;1174;114944;-62
2021/04/24 03:23:22;;;;;;;13.95;6.13;;;;;;;0.76;72.97;100451.22;233224;1173;114786;-62
2021/04/24 03:28:26;;;;;;;8.73;4.40;;;;;;;0.78;72.46;100449.26;233592;1174;115336;-62
2021/04/24 03:33:29;;;;;;;10.48;5.33;;;;;;;0.81;72.52;100452.41;234359;1173;114325;-62
2021/04/24 03:38:34;;;;;;;11.13;5.33;;;;;;;0.94;72.81;100459.84;233895;1170;115016;-62
2021/04/24 03:43:38;;;;;;;7.90;4.80;;;;;;;1.55;71.92;100446.52;234234;1174;114511;-62
2021/04/24 03:48:43;;;;;;;10.25;5.25;;;;;;;2.18;71.60;100445.17;235457;1174;114595;-62
2021/04/24 03:53:47;;;;;;;8.77;4.93;;;;;;;1.94;71.30;100454.68;235308;1173;114990;-62
2021/04/24 03:58:51;;;;;;;7.05;5.03;;;;;;;1.85;71.65;100465.33;235436;1174;114280;-64
2021/04/24 04:03:54;;;;;;;13.58;5.58;;;;;;;1.82;71.73;100473.56;235341;1174;114278;-62
2021/04/24 04:09:00;;;;;;;9.60;5.53;;;;;;;1.87;70.88;100468.63;235383;1174;114613;-62
2021/04/24 04:14:04;;;;;;;7.58;4.38;;;;;;;1.91;71.87;100476.03;235355;1174;114543;-62
2021/04/24 04:19:08;;;;;;;11.55;4.95;;;;;;;1.92;71.78;100472.42;233706;1174;115756;-62
2021/04/24 04:24:12;;;;;;;9.20;5.25;;;;;;;1.96;71.63;100478.19;233334;1173;115419;-62
2021/04/24 04:29:16;;;;;;;9.08;4.93;;;;;;;1.98;71.13;100481.48;232765;1174;114904;-62
2021/04/24 04:34:20;;;;;;;8.88;4.58;;;;;;;1.98;71.44;100484.11;233990;1174;116990;-62
2021/04/24 04:39:24;;;;;;;11.47;4.80;;;;;;;2.09;71.03;100488.25;233932;1174;115368;-63
2021/04/24 04:44:28;;;;;;;4.10;3.60;;;;;;;2.19;70.73;100499.42;233010;1174;115038;-63
2021/04/24 04:49:31;;;;;;;6.20;3.93;;;;;;;2.28;71.26;100487.94;232584;1173;114640;-62
2021/04/24 04:54:35;;;;;;;6.57;3.83;;;;;;;2.36;71.21;100488.78;232403;1174;114600;-63
2021/04/24 04:59:38;;;;;;;6.73;4.03;;;;;;;2.45;71.78;100497.48;233379;1174;114818;-64
2021/04/24 05:04:44;;;;;;;5.83;4.17;;;;;;;2.52;72.20;100497.66;232878;1173;115639;-63
2021/04/24 05:09:48;;;;;;;7.78;3.30;;;;;;;2.62;71.71;100504.41;232500;1169;117625;-63
2021/04/24 05:14:52;;;;;;;9.28;3.70;;;;;;;2.72;71.81;100496.36;233271;1173;115323;-62
2021/04/24 05:19:55;;;;;;;4.78;3.23;;;;;;;2.82;71.82;100499.63;232561;1173;114793;-62
2021/04/24 05:24:59;;;;;;;6.47;3.93;;;;;;;2.95;72.10;100494.69;232585;1174;114855;-63
2021/04/24 05:30:05;;;;;;;7.05;4.50;;;;;;;2.99;72.23;100501.27;233605;1174;115252;-63
2021/04/24 05:35:14;;;;;;;6.98;4.13;;;;;;;3.06;72.02;100487.44;232834;1173;116069;-63
2021/04/24 05:40:19;;;;;;;4.00;3.13;;;;;;;3.19;71.79;100482.45;232327;1173;115434;-62
2021/04/24 05:45:22;;;;;;;3.95;2.95;;;;;;;3.36;71.79;100489.33;234141;1173;114831;-63
2021/04/24 05:50:25;;;;;;;5.17;3.37;;;;;;;3.49;72.36;100499.31;233147;1173;115268;-65
2021/04/24 05:55:31;;;;;;;7.80;4.10;;;;;;;3.55;71.90;100496.83;235258;1174;115066;-63
2021/04/24 06:00:34;;;;;;;6.35;3.30;;;;;;;3.65;71.54;100505.38;235203;1174;115036;-65
2021/04/24 06:05:37;;;;;;;9.28;3.78;;;;;;;3.78;71.55;100507.44;235326;1166;114952;-64
2021/04/24 06:10:43;;;;;;;6.10;3.75;;;;;;;3.92;71.30;100506.72;235323;1171;115277;-66
2021/04/24 06:15:47;;;;;;;5.15;3.50;;;;;;;4.09;71.90;100509.27;235118;1167;114930;-65
2021/04/24 06:20:50;;;;;;;9.30;4.83;;;;;;;4.15;71.13;100516.48;235202;1171;115560;-64
2021/04/24 06:25:52;;;;;;;9.80;4.50;;;;;;;4.21;70.98;100490.23;235173;1174;115205;-66
2021/04/24 06:30:55;;;;;;;6.03;4.10;;;;;;;4.47;70.38;100502.25;235331;1173;114876;-63
2021/04/24 06:35:58;;;;;;;4.73;2.70;;;;;;;5.06;69.62;100505.88;235060;1174;115145;-64
2021/04/24 06:41:00;;;;;;;7.23;4.05;;;;;;;5.63;69.36;100502.61;235109;1174;114677;-60
2021/04/24 06:46:03;;;;;;;5.03;3.40;;;;;;;6.15;68.57;100502.44;234918;1174;115455;-64
2021/04/24 06:51:07;;;;;;;5.08;3.00;;;;;;;6.50;68.20;100495.46;233729;1174;115009;-63
2021/04/24 06:56:10;;;;;;;8.10;2.35;;;;;;;6.60;66.82;100493.33;233154;1174;115195;-64
2021/04/24 07:01:16;;;;;;;3.87;2.97;;;;;;;7.06;66.85;100488.38;232550;1173;115522;-63
2021/04/24 07:06:20;;;;;;;6.50;3.73;;;;;;;7.94;66.05;100483.34;235248;1174;114262;-63
2021/04/24 07:11:23;;;;;;;5.33;4.27;;;;;;;8.38;64.42;100480.20;235227;1173;115720;-63
2021/04/24 07:16:27;;;;;;;7.40;4.50;;;;;;;8.95;65.11;100468.96;235139;1173;114886;-64
2021/04/24 07:21:37;;;;;;;7.53;3.90;;;;;;;9.38;64.32;100477.28;232327;1174;115522;-64
2021/04/24 07:26:42;;;;;;;6.90;5.10;;;;;;;9.90;63.76;100463.98;233389;1174;115185;-64
2021/04/24 07:31:50;;;;;;;2.90;2.40;;;;;;;10.21;61.82;100466.70;234083;1174;117383;-63
2021/04/24 07:36:53;;;;;;;5.88;4.15;;;;;;;10.78;62.40;100465.67;232706;1173;115995;-64
2021/04/24 07:41:57;;;;;;;9.18;5.75;;;;;;;11.49;60.73;100461.69;235263;1174;116047;-66
2021/04/24 07:46:59;;;;;;;11.70;4.88;;;;;;;11.84;60.07;100477.13;235143;1174;116816;-66
2021/04/24 07:52:05;;;;;;;4.48;4.05;;;;;;;11.75;58.46;100477.40;235140;1174;117216;-66
2021/04/24 07:57:10;;;;;;;7.55;4.85;;;;;;;11.56;58.25;100481.13;232241;1174;116604;-64
2021/04/24 08:02:14;;;;;;;;;;;;;;;11.65;57.97;100473.61;235157;1174;116721;-64
2021/04/24 08:07:19;;;;;;;4.63;3.03;;;;;;;11.76;57.05;100470.20;235848;1173;103574;-64
2021/04/24 08:12:23;;;;;;;6.68;3.33;;;;;;;11.60;56.44;100471.64;235174;1174;116949;-66
2021/04/24 08:17:28;;;;;;;15.60;4.55;;;;;;;11.34;56.10;100471.91;235194;1174;117238;-65
2021/04/24 08:22:32;;;;;;;11.20;5.60;;;;;;;11.10;56.17;100466.41;235145;1174;117637;-65
2021/04/24 08:27:37;;;;;;;4.23;3.03;;;;;;;11.09;56.03;100462.10;235106;1174;116511;-65
2021/04/24 08:32:42;;;;;;;7.40;4.15;;;;;;;11.36;55.75;100454.63;235059;1174;114717;-65
2021/04/24 08:37:47;;;;;;;10.48;4.03;;;;;;;11.78;56.07;100447.60;234225;1174;115291;-65
2021/04/24 08:42:51;;;;;;;7.07;4.40;;;;;;;12.37;55.45;100450.48;235154;1173;115347;-65
2021/04/24 08:47:56;;;;;;;8.78;5.18;;;;;;;12.64;54.40;100456.23;233069;1174;115784;-65
2021/04/24 08:53:01;;;;;;;7.83;4.18;;;;;;;13.00;54.10;100453.34;234239;1174;115559;-65
2021/04/24 08:58:06;;;;;;;8.53;4.00;;;;;;;12.99;53.89;100443.69;232116;1174;115566;-65
2021/04/24 09:03:13;;;;;;;5.07;3.47;;;;;;;12.95;53.03;100453.23;232985;1174;115594;-65
2021/04/24 09:08:28;;;;;;;5.07;4.00;;;;;;;12.87;52.74;100452.75;232946;1167;115300;-65
2021/04/24 09:13:35;;;;;;;;;;;;;;;12.83;52.34;100443.59;232966;1173;116070;-64
2021/04/24 09:18:38;;;;;;;6.98;3.68;;;;;;;12.79;52.25;100448.58;234351;1173;103005;-66
2021/04/24 09:23:43;;;;;;;10.10;3.68;;;;;;;13.15;53.07;100448.35;232336;1174;115772;-66
2021/04/24 09:28:57;;;;;;;9.60;3.13;;;;;;;13.53;52.46;100438.98;232923;1171;115086;-65
2021/04/24 09:34:02;;;;;;;5.50;2.67;;;;;;;13.88;51.65;100419.30;232384;1174;115130;-67
2021/04/24 09:39:10;;;;;;;3.88;3.03;;;;;;;14.18;50.03;100425.22;234079;1173;115446;-65
2021/04/24 09:44:16;;;;;;;3.93;3.50;;;;;;;14.48;50.08;100408.86;233597;1173;115366;-65
2021/04/24 09:49:21;;;;;;;7.90;3.43;;;;;;;14.14;48.90;100407.98;234719;1167;115235;-65
2021/04/24 09:54:37;;;;;;;7.60;3.35;;;;;;;13.57;48.71;100412.54;233678;1173;116137;-65
2021/04/24 10:00:13;;;;;;;3.58;2.85;;;;;;;13.23;48.73;100416.92;232365;1174;115831;-66
2021/04/24 10:05:22;;;;;;;7.13;2.07;;;;;;;12.99;48.23;100408.90;234463;1174;115333;-64
2021/04/24 10:10:30;;;;;;;5.28;2.78;;;;;;;13.11;48.45;100401.69;235142;1167;116217;-64
2021/04/24 10:15:41;;;;;;;2.73;1.88;;;;;;;13.14;48.01;100401.22;235039;1174;115626;-65
2021/04/24 10:20:46;;;;;;;6.40;3.57;;;;;;;12.85;47.83;100402.14;235322;1173;115885;-65
2021/04/24 10:25:52;;;;;;;4.33;2.73;;;;;;;12.63;47.72;100407.27;234958;1174;115441;-65
2021/04/24 10:30:56;;;;;;;5.43;3.00;;;;;;;12.92;47.77;100397.49;235369;1173;116505;-65
2021/04/24 10:36:00;;;;;;;3.60;2.23;;;;;;;13.13;47.73;100391.55;233873;1174;116940;-66
2021/04/24 10:41:04;;;;;;;3.83;2.30;;;;;;;13.24;47.52;100379.20;232861;1174;117156;-67
2021/04/24 10:46:30;;;;;;;6.15;4.10;;;;;;;12.89;46.53;100381.09;233440;1174;116160;-67
2021/04/24 10:51:55;;;;;;;3.20;2.53;;;;;;;12.30;47.63;100385.60;233500;1174;116326;-67
2021/04/24 10:57:00;;;;;;;4.95;3.23;;;;;;;11.83;47.33;100395.36;234147;1174;115244;-65
2021/04/24 11:02:11;;;;;;;3.13;2.83;;;;;;;11.41;48.13;100397.91;232449;1173;115106;-66
2021/04/24 11:07:27;;;;;;;2.38;1.98;;;;;;;10.98;48.03;100403.34;233563;1170;115487;-66
2021/04/24 11:12:34;;;;;;;3.98;3.43;;;;;;;10.59;48.85;100413.34;232963;1174;116252;-65
2021/04/24 11:17:39;;;;;;;3.45;2.28;;;;;;;10.25;49.95;100438.61;232411;1173;116603;-66
2021/04/24 11:22:44;;;;;;;3.37;2.10;;;;;;;9.79;51.53;100466.27;233840;1173;115964;-65
2021/04/24 11:28:08;;;;;;;6.30;3.57;;;;;;;9.28;52.19;100465.44;233044;1174;115690;-66
2021/04/24 11:33:40;;;;;;;3.08;2.38;;;;;;;8.86;54.37;100467.56;232521;1174;115616;-66
2021/04/24 11:38:57;;;;;;;6.10;3.03;;;;;;;8.68;54.99;100454.88;233214;1167;116061;-66
2021/04/24 11:44:26;;;;;;;2.63;2.43;;;;;;;8.84;55.99;100450.17;232232;1173;115598;-66
2021/04/24 11:49:31;;;;;;;4.53;3.18;;;;;;;9.34;56.50;100451.30;233252;1174;116951;-64
2021/04/24 11:54:41;;;;;;;7.28;2.98;;;;;;;9.98;56.95;100439.77;233558;1174;116971;-65
2021/04/24 11:59:49;;;;;;;6.70;3.50;;;;;;;10.54;55.89;100431.83;232850;1174;117167;-65
2021/04/24 12:05:00;;;;;;;1.45;1.20;;;;;;;10.73;55.82;100425.50;234067;1174;115654;-65
2021/04/24 12:10:06;;;;;;;3.68;2.68;;;;;;;10.94;53.75;100420.82;233827;1174;117663;-66
2021/04/24 12:15:18;;;;;;;5.70;2.30;;;;;;;10.97;53.63;100415.86;235331;1173;115854;-65
2021/04/24 12:20:31;;;;;;;5.25;3.35;;;;;;;11.02;53.02;100415.17;235162;1167;117018;-64
2021/04/24 12:25:37;;;;;;;7.98;2.28;;;;;;;11.16;52.87;100421.20;235012;1174;116356;-65
2021/04/24 12:30:47;;;;;;;2.78;2.20;;;;;;;11.30;52.08;100409.36;234402;1169;206058;-66
2021/04/24 12:35:57;;;;;;;5.15;2.18;;;;;;;11.37;51.55;100402.88;234970;1173;117033;-63
2021/04/24 12:41:03;;;;;;;1.58;1.38;;;;;;;11.47;51.12;100400.51;235184;1174;116204;-64
2021/04/24 12:46:08;;;;;;;4.18;2.13;;;;;;;11.64;50.13;100392.68;232704;1167;116364;-67
2021/04/24 12:51:17;;;;;;;2.73;2.50;;;;;;;11.78;48.90;100388.84;232256;1174;117130;-68
2021/04/24 12:56:29;;;;;;;3.47;2.43;;;;;;;11.79;49.30;100393.14;234697;1174;117124;-63
2021/04/24 13:01:35;;;;;;;5.48;2.45;;;;;;;11.90;48.96;100396.91;232126;1171;117056;-66
2021/04/24 13:06:53;;;;;;;6.73;3.43;;;;;;;12.04;49.09;100387.64;232150;1174;116233;-68
2021/04/24 13:11:56;;;;;;;2.08;1.95;;;;;;;12.12;48.58;100375.81;233495;1174;116516;-67
2021/04/24 13:17:09;;;;;;;2.58;2.05;;;;;;;11.98;48.26;100374.38;232086;1174;116240;-65
2021/04/24 13:22:12;;;;;;;5.48;3.23;;;;;;;11.67;48.80;100368.20;234046;1174;116432;-68
2021/04/24 13:27:24;;;;;;;4.60;3.58;;;;;;;11.31;48.89;100368.28;233643;1174;116438;-68
2021/04/24 13:32:27;;;;;;;5.53;2.65;;;;;;;11.12;48.90;100381.62;232391;1174;115968;-68
2021/04/24 13:37:32;;;;;;;3.85;2.05;;;;;;;11.19;49.21;100381.55;233630;1167;116776;-68
2021/04/24 13:42:38;;;;;;;5.15;3.15;;;;;;;11.40;48.81;100366.92;235234;1174;115843;-67
2021/04/24 13:47:51;;;;;;;5.80;3.43;;;;;;;11.62;49.09;100369.91;232527;1174;116790;-65
2021/04/24 13:52:56;;;;;;;3.35;2.93;;;;;;;12.02;49.29;100356.84;235295;1174;120007;-65
2021/04/24 13:58:16;;;;;;;2.70;2.10;;;;;;;12.35;48.52;100361.67;233605;1174;117062;-65
2021/04/24 14:03:20;;;;;;;4.13;2.53;;;;;;;12.46;47.59;100350.99;234843;1174;115970;-63
2021/04/24 14:08:23;;;;;;;5.18;3.50;;;;;;;12.54;47.45;100343.65;235072;1173;119029;-65
2021/04/24 14:13:26;;;;;;;4.90;3.53;;;;;;;12.63;47.17;100336.91;235205;1174;116881;-65
2021/04/24 14:18:41;;;;;;;4.00;2.33;;;;;;;12.55;46.93;100343.41;235350;1174;117681;-63
2021/04/24 14:23:46;;;;;;;4.58;2.93;;;;;;;12.12;46.61;100343.75;235367;1167;118148;-63
2021/04/24 14:28:51;;;;;;;6.25;3.05;;;;;;;11.69;47.15;100352.77;232934;1174;115322;-69
2021/04/24 14:33:55;;;;;;;5.63;2.70;;;;;;;11.47;47.04;100346.30;235435;1173;117558;-65
2021/04/24 14:39:02;;;;;;;3.30;1.50;;;;;;;11.26;47.17;100342.27;235110;1174;117698;-64
2021/04/24 14:44:06;;;;;;;4.20;2.47;;;;;;;11.21;47.04;100344.78;235118;1174;116755;-66
2021/04/24 14:49:09;;;;;;;7.00;2.40;;;;;;;11.38;46.90;100342.30;234947;1174;116281;-64
2021/04/24 14:54:13;;;;;;;3.20;2.23;;;;;;;11.32;46.94;100343.19;234601;1174;116052;-63
2021/04/24 14:59:17;;;;;;;5.27;2.83;;;;;;;11.23;47.04;100342.70;235174;1174;117103;-63
2021/04/24 15:04:24;;;;;;;4.13;3.10;;;;;;;11.20;47.38;100342.34;233580;1174;115830;-61
2021/04/24 15:09:27;;;;;;;9.00;4.00;;;;;;;11.13;47.91;100337.89;234534;1174;115124;-65
2021/04/24 15:14:31;;;;;;;5.60;3.70;;;;;;;11.07;47.98;100335.29;235179;1174;115950;-62
2021/04/24 15:19:41;;;;;;;5.45;3.45;;;;;;;10.96;48.29;100336.06;233072;1174;114627;-65
2021/04/24 15:24:46;;;;;;;12.50;7.00;;;;;;;10.79;48.36;100336.63;232338;1167;115524;-65
2021/04/24 15:29:52;;;;;;;5.63;4.03;;;;;;;10.64;48.45;100336.19;234065;1173;116355;-65
2021/04/24 15:34:57;;;;;;;3.70;2.45;;;;;;;10.54;48.81;100335.05;235094;1174;115688;-64
2021/04/24 15:40:01;;;;;;;5.75;3.35;;;;;;;10.60;49.05;100339.50;235216;1174;115592;-63
2021/04/24 15:45:12;;;;;;;5.13;2.80;;;;;;;10.54;48.76;100329.72;235322;1173;115511;-63
2021/04/24 15:50:19;;;;;;;3.93;3.18;;;;;;;10.35;48.83;100335.02;235287;1174;114971;-65
2021/04/24 15:55:22;;;;;;;;;;;;;;;10.25;48.94;100337.36;235502;1173;115311;-65
2021/04/24 16:00:30;;;;;;;8.90;5.27;;;;;;;10.12;49.18;100332.91;236162;1173;101623;-64
2021/04/24 16:05:34;;;;;;;4.08;3.30;;;;;;;10.13;49.48;100323.88;235131;1172;115351;-64
2021/04/24 16:10:39;;;;;;;3.73;2.60;;;;;;;10.22;49.29;100323.65;235493;1174;115159;-66
2021/04/24 16:15:43;;;;;;;4.13;3.03;;;;;;;10.25;49.71;100325.88;235193;1173;115734;-65
2021/04/24 16:20:46;;;;;;;6.03;3.30;;;;;;;10.09;49.34;100317.35;235139;1173;115102;-66
2021/04/24 16:25:49;;;;;;;3.87;3.43;;;;;;;9.89;48.97;100321.20;235306;1173;116071;-66
2021/04/24 16:30:53;;;;;;;5.30;2.97;;;;;;;9.68;49.52;100317.88;235234;1173;114884;-64
2021/04/24 16:35:56;;;;;;;4.60;3.25;;;;;;;9.49;50.04;100310.80;235147;1174;115111;-63
2021/04/24 16:40:59;;;;;;;6.97;4.37;;;;;;;9.35;49.80;100318.06;235064;1174;115424;-64
2021/04/24 16:46:03;;;;;;;18.80;3.70;;;;;;;9.31;49.92;100310.70;234964;1173;115583;-64
2021/04/24 16:51:07;;;;;;;6.45;4.08;;;;;;;9.30;49.98;100306.41;235103;1173;115378;-62
2021/04/24 16:56:11;;;;;;;7.45;3.65;;;;;;;9.25;51.11;100309.70;235046;1174;115152;-62
2021/04/24 17:01:16;;;;;;;4.15;3.78;;;;;;;9.22;50.69;100306.66;235206;1174;115165;-62
2021/04/24 17:06:23;;;;;;;6.48;3.70;;;;;;;9.11;51.72;100300.98;234023;1173;115168;-67
2021/04/24 17:11:28;;;;;;;4.68;3.10;;;;;;;8.99;50.87;100302.66;233198;1174;114954;-65
2021/04/24 17:16:32;;;;;;;9.10;4.48;;;;;;;8.78;51.98;100301.11;232108;1173;115181;-66
2021/04/24 17:21:36;;;;;;;7.50;2.97;;;;;;;8.58;51.84;100300.32;235161;1172;115603;-65
2021/04/24 17:26:39;;;;;;;6.90;4.60;;;;;;;8.47;51.80;100310.78;235410;1174;116160;-65
2021/04/24 17:31:41;;;;;;;8.05;4.10;;;;;;;8.38;53.04;100300.37;235291;1174;115105;-67
2021/04/24 17:36:45;;;;;;;7.03;5.10;;;;;;;8.32;52.53;100306.50;235241;1173;114896;-67
2021/04/24 17:41:48;;;;;;;5.50;3.40;;;;;;;8.27;53.76;100305.44;234013;1174;114578;-65
2021/04/24 17:46:52;;;;;;;11.70;5.30;;;;;;;8.19;53.62;100309.15;234401;1174;115100;-65
2021/04/24 17:51:55;;;;;;;5.93;4.10;;;;;;;8.12;54.22;100308.33;235159;1167;115096;-65
2021/04/24 17:56:59;;;;;;;9.35;5.10;;;;;;;8.07;53.59;100308.12;233974;1174;115016;-64
2021/04/24 18:02:03;;;;;;;10.60;5.23;;;;;;;7.99;54.22;100317.09;233608;1174;114792;-65
2021/04/24 18:07:06;;;;;;;9.80;5.98;;;;;;;7.92;55.06;100315.48;233382;1173;115184;-64
2021/04/24 18:12:09;;;;;;;10.30;5.88;;;;;;;7.83;55.24;100312.20;233719;1174;115065;-64
2021/04/24 18:17:13;;;;;;;9.70;6.30;;;;;;;7.77;55.33;100321.78;233059;1174;116460;-66
2021/04/24 18:22:17;;;;;;;12.17;7.20;;;;;;;7.70;55.93;100322.78;232690;1170;116381;-64
2021/04/24 18:27:19;;;;;;;9.98;6.23;;;;;;;7.60;56.24;100328.50;234569;1174;115756;-64
2021/04/24 18:32:22;;;;;;;8.65;5.00;;;;;;;7.55;56.78;100327.45;233344;1174;116850;-65
2021/04/24 18:37:25;;;;;;;20.80;7.58;;;;;;;7.42;57.33;100325.58;233381;1174;115654;-63
2021/04/24 18:42:27;;;;;;;9.73;6.40;;;;;;;7.28;57.02;100319.42;235316;1174;115104;-64
2021/04/24 18:47:31;;;;;;;12.00;5.73;;;;;;;7.18;57.14;100326.11;235434;1173;115657;-65
2021/04/24 18:52:33;;;;;;;9.87;5.80;;;;;;;7.08;57.63;100314.03;235207;1174;115913;-65
2021/04/24 18:57:39;;;;;;;12.37;7.30;;;;;;;6.94;57.71;100317.66;235247;1174;114958;-65
2021/04/24 19:02:41;;;;;;;12.70;7.15;;;;;;;6.85;57.41;100315.36;235149;1173;115574;-64
2021/04/24 19:07:44;;;;;;;21.90;9.27;;;;;;;6.72;58.06;100316.13;233986;1174;114916;-65
2021/04/24 19:12:46;;;;;;;16.15;8.90;;;;;;;6.56;58.05;100317.23;233811;1174;115880;-64
2021/04/24 19:17:49;;;;;;;14.57;7.27;;;;;;;6.43;58.47;100319.78;233835;1174;115640;-64
2021/04/24 19:22:54;;;;;;;12.58;7.13;;;;;;;6.30;58.56;100309.94;232875;1174;116015;-65
2021/04/24 19:27:57;;;;;;;13.48;6.75;;;;;;;6.15;59.13;100314.49;232771;1173;115954;-64
2021/04/24 19:33:00;;;;;;;13.53;7.90;;;;;;;5.96;59.29;100308.04;233407;1174;115896;-64
2021/04/24 19:38:04;;;;;;;10.98;6.05;;;;;;;5.79;59.89;100311.94;232383;1174;116766;-64
2021/04/24 19:43:09;;;;;;;16.70;6.00;;;;;;;5.55;59.67;100310.46;232363;1174;116080;-64
2021/04/24 19:48:13;;;;;;;12.03;7.18;;;;;;;5.42;60.19;100305.05;233195;1174;115474;-64
2021/04/24 19:53:16;;;;;;;10.08;5.93;;;;;;;5.39;59.88;100313.36;232635;1173;115876;-64
2021/04/24 19:58:20;;;;;;;6.60;5.00;;;;;;;5.34;60.47;100307.80;234331;1173;115409;-64
2021/04/24 20:03:24;;;;;;;10.50;5.55;;;;;;;5.31;60.54;100302.89;233686;1174;115119;-64
2021/04/24 20:08:28;;;;;;;10.88;6.20;;;;;;;5.32;60.59;100301.88;233477;1174;114628;-66
2021/04/24 20:13:31;;;;;;;10.28;7.35;;;;;;;5.40;61.12;100301.78;233592;1171;115173;-64
2021/04/24 20:18:35;;;;;;;14.80;6.53;;;;;;;5.42;60.83;100305.05;234183;1174;115660;-64
2021/04/24 20:23:38;;;;;;;11.85;5.43;;;;;;;5.33;60.83;100300.88;232404;1173;115254;-63
2021/04/24 20:28:43;;;;;;;11.65;7.63;;;;;;;5.25;60.76;100300.98;234369;1173;114705;-63
2021/04/24 20:33:46;;;;;;;9.20;7.27;;;;;;;5.20;60.85;100298.89;233667;1174;116019;-63
2021/04/24 20:38:51;;;;;;;16.05;7.25;;;;;;;5.13;61.26;100305.13;235212;1174;115822;-63
2021/04/24 20:43:56;;;;;;;13.20;8.85;;;;;;;5.10;61.19;100319.53;235236;1174;115291;-63
2021/04/24 20:49:01;;;;;;;17.93;7.30;;;;;;;5.04;61.95;100320.27;235430;1173;117653;-62
2021/04/24 20:54:07;;;;;;;14.00;8.20;;;;;;;4.97;61.26;100311.43;235563;1174;114823;-63
2021/04/24 20:59:11;;;;;;;19.97;10.73;;;;;;;4.91;61.79;100317.44;235352;1174;115030;-63
2021/04/24 21:04:14;;;;;;;13.45;7.90;;;;;;;4.80;62.72;100310.82;235325;1173;115186;-65
2021/04/24 21:09:19;;;;;;;15.10;10.40;;;;;;;4.76;62.19;100303.44;234576;1173;115129;-63
2021/04/24 21:14:23;;;;;;;20.35;10.00;;;;;;;4.72;62.68;100303.80;235235;1174;115000;-63
2021/04/24 21:19:32;;;;;;;13.55;10.20;;;;;;;4.71;62.66;100303.98;234763;1174;115456;-63
2021/04/24 21:24:35;;;;;;;20.33;9.60;;;;;;;4.71;62.24;100310.09;233013;1174;115153;-64
2021/04/24 21:29:38;;;;;;;23.05;11.80;;;;;;;4.69;62.17;100316.55;233814;1174;115074;-62
2021/04/24 21:34:42;;;;;;;22.78;12.45;;;;;;;4.57;63.07;100328.58;233319;1174;114767;-63
2021/04/24 21:39:47;;;;;;;22.40;11.60;;;;;;;4.47;62.33;100320.10;232771;1173;116099;-63
2021/04/24 21:44:51;;;;;;;28.58;12.43;;;;;;;4.33;62.47;100329.63;232489;1173;115184;-63
2021/04/24 21:49:56;;;;;;;25.73;12.13;;;;;;;4.20;62.96;100330.25;233461;1173;115463;-63
2021/04/24 21:55:00;;;;;;;20.08;11.20;;;;;;;4.01;63.28;100336.01;232557;1173;114713;-63
2021/04/24 22:00:26;;;;;;;25.97;14.47;;;;;;;3.82;63.97;100341.78;232689;1174;115500;-62
2021/04/24 22:05:31;;;;;;;34.83;18.33;;;;;;;3.73;64.00;100338.38;233354;1174;115139;-62
2021/04/24 22:10:42;;;;;;;46.38;20.13;;;;;;;3.67;63.84;100345.16;232615;1173;114991;-63
2021/04/24 22:15:49;;;;;;;57.07;23.90;;;;;;;3.65;64.31;100336.63;232578;1167;116086;-63
2021/04/24 22:20:53;;;;;;;51.58;25.23;;;;;;;3.62;64.78;100336.16;234013;1174;114654;-62
2021/04/24 22:25:57;;;;;;;40.45;19.10;;;;;;;3.56;65.29;100342.13;234452;1173;114611;-62
2021/04/24 22:31:00;;;;;;;22.23;10.48;;;;;;;3.52;65.84;100333.73;233083;1172;115136;-63
2021/04/24 22:36:04;;;;;;;23.38;13.38;;;;;;;3.45;66.01;100330.16;234479;1172;118176;-63
2021/04/24 22:41:08;;;;;;;30.67;13.87;;;;;;;3.50;66.50;100338.36;234035;1174;114587;-63
2021/04/24 22:46:11;;;;;;;18.58;10.13;;;;;;;3.62;66.43;100342.25;235271;1174;115153;-62
2021/04/24 22:51:16;;;;;;;19.40;10.10;;;;;;;3.66;66.58;100343.55;235390;1167;114859;-62
2021/04/24 22:56:20;;;;;;;10.83;7.40;;;;;;;3.69;66.88;100337.89;235406;1173;114743;-63
2021/04/24 23:01:23;;;;;;;16.20;9.00;;;;;;;3.70;66.29;100334.27;235290;1174;115000;-62
2021/04/24 23:06:28;;;;;;;23.02;11.55;;;;;;;3.70;66.39;100328.17;235265;1174;116970;-63
2021/04/24 23:11:34;;;;;;;21.00;9.10;;;;;;;3.79;66.06;100321.03;235107;1174;114580;-63
2021/04/24 23:16:38;;;;;;;24.57;10.90;;;;;;;3.79;66.69;100321.85;234869;1174;115358;-63